createdAt,value
2022-08-14T00:05:21.606Z,6.68
2022-08-14T00:15:43.387Z,6.85
2022-08-14T00:25:53.969Z,7.35
2022-08-14T00:36:36.388Z,6.78
2022-08-14T00:46:33.271Z,6.85
2022-08-14T00:56:36.430Z,6.50
2022-08-14T01:06:41.218Z,6.60
2022-08-14T01:16:44.246Z,6.47
2022-08-14T01:26:58.155Z,6.15
2022-08-14T01:37:04.860Z,6.85
2022-08-14T01:47:22.166Z,6.20
2022-08-14T01:57:24.920Z,7.30
2022-08-14T02:07:53.319Z,6.20
2022-08-14T02:18:04.471Z,5.93
2022-08-14T02:28:22.589Z,5.82
2022-08-14T02:38:34.297Z,5.68
2022-08-14T02:49:03.761Z,6.15
2022-08-14T02:59:10.355Z,6.28
2022-08-14T03:09:15.412Z,6.50
2022-08-14T03:19:19.514Z,5.97
2022-08-14T03:29:22.129Z,6.38
2022-08-14T03:39:30.703Z,7.15
2022-08-14T03:49:34.062Z,6.63
2022-08-14T03:59:38.869Z,6.80
2022-08-14T04:09:44.491Z,6.45
2022-08-14T04:19:47.557Z,7.15
2022-08-14T04:29:52.725Z,7.00
2022-08-14T04:40:15.237Z,7.53
2022-08-14T04:50:17.962Z,7.68
2022-08-14T05:00:22.706Z,8.20
2022-08-14T05:10:32.266Z,7.03
2022-08-14T05:21:54.427Z,7.05
2022-08-14T05:31:01.151Z,8.27
2022-08-14T05:41:10.252Z,8.35
2022-08-14T05:51:14.224Z,9.50
2022-08-14T06:01:17.817Z,9.85
2022-08-14T06:11:31.043Z,9.20
2022-08-14T06:21:34.285Z,9.88
2022-08-14T06:31:39.595Z,10.13
2022-08-14T06:41:58.006Z,10.98
2022-08-14T06:52:01.912Z,10.05
2022-08-14T07:02:25.090Z,11.95
2022-08-14T07:12:55.124Z,11.07
2022-08-14T07:23:01.472Z,10.00
2022-08-14T07:33:10.555Z,8.57
2022-08-14T07:43:16.752Z,7.85
2022-08-14T07:53:19.551Z,9.60
2022-08-14T08:03:25.231Z,9.57
2022-08-14T08:13:38.785Z,10.00
2022-08-14T08:23:51.134Z,28.80
2022-08-14T08:34:06.456Z,9.25
2022-08-14T08:44:17.042Z,11.80
2022-08-14T08:54:34.182Z,10.50
2022-08-14T09:04:44.955Z,11.73
2022-08-14T09:14:53.335Z,11.23
2022-08-14T09:24:55.969Z,10.65
2022-08-14T09:35:27.769Z,11.23
2022-08-14T09:45:40.271Z,12.65
2022-08-14T09:55:59.999Z,11.50
2022-08-14T10:06:23.637Z,11.93
2022-08-14T10:16:42.435Z,14.23
2022-08-14T10:27:00.556Z,11.85
2022-08-14T10:37:14.279Z,11.05
2022-08-14T10:47:40.162Z,10.70
2022-08-14T10:57:53.235Z,11.80
2022-08-14T11:07:59.807Z,11.90
2022-08-14T11:18:02.829Z,11.82
2022-08-14T11:28:11.081Z,12.38
2022-08-14T11:38:20.269Z,11.23
2022-08-14T11:49:01.694Z,11.35
2022-08-14T11:58:55.281Z,12.68
2022-08-14T12:09:00.574Z,12.57
2022-08-14T12:19:08.281Z,13.40
2022-08-14T12:29:16.359Z,11.73
2022-08-14T12:39:21.575Z,12.45
2022-08-14T12:49:28.521Z,12.70
2022-08-14T12:59:37.136Z,11.98
2022-08-14T13:09:45.179Z,12.13
2022-08-14T13:19:49.466Z,9.57
2022-08-14T13:29:57.070Z,11.75
2022-08-14T13:40:05.912Z,10.40
2022-08-14T13:50:18.293Z,10.82
2022-08-14T14:00:32.610Z,10.73
2022-08-14T14:10:36.756Z,10.38
2022-08-14T14:20:45.568Z,10.15
2022-08-14T14:30:57.167Z,10.68
2022-08-14T14:41:01.587Z,10.20
2022-08-14T14:51:09.019Z,10.38
2022-08-14T15:01:15.915Z,11.77
2022-08-14T15:11:20.424Z,10.48
2022-08-14T15:21:28.383Z,10.82
2022-08-14T15:31:36.645Z,10.18
2022-08-14T15:41:42.135Z,10.93
2022-08-14T15:51:50.962Z,10.10
2022-08-14T16:01:57.419Z,11.00
2022-08-14T16:12:03.733Z,10.25
2022-08-14T16:22:59.321Z,11.10
2022-08-14T16:32:35.856Z,11.40
2022-08-14T16:43:12.933Z,12.07
2022-08-14T16:53:17.158Z,11.68
2022-08-14T17:03:22.242Z,12.40
2022-08-14T17:13:59.775Z,11.80
2022-08-14T17:23:57.086Z,10.50
2022-08-14T17:34:02.450Z,11.40
2022-08-14T17:44:34.291Z,12.25
2022-08-14T17:54:58.786Z,12.43
2022-08-14T18:05:03.500Z,12.40
2022-08-14T18:15:16.481Z,13.02
2022-08-14T18:25:24.078Z,8.95
2022-08-14T18:35:59.146Z,6.53
2022-08-14T18:46:02.858Z,7.07
2022-08-14T18:56:10.304Z,6.55
2022-08-14T19:06:17.558Z,7.22
2022-08-14T19:16:22.881Z,7.32
2022-08-14T19:26:35.462Z,9.70
2022-08-14T19:37:05.609Z,9.38
2022-08-14T19:47:12.174Z,8.05
2022-08-14T19:57:23.200Z,9.40
2022-08-14T20:07:56.259Z,10.65
2022-08-14T20:18:05.097Z,10.00
2022-08-14T20:28:28.981Z,10.05
2022-08-14T20:38:33.985Z,10.90
2022-08-14T20:48:53.291Z,12.10
2022-08-14T20:59:17.580Z,13.63
2022-08-14T21:10:03.221Z,12.35
2022-08-14T21:19:50.573Z,12.88
2022-08-14T21:29:55.231Z,14.70
2022-08-14T21:40:18.541Z,15.10
2022-08-14T21:50:39.589Z,13.80
2022-08-14T22:00:46.785Z,13.80
2022-08-14T22:10:59.328Z,13.63
2022-08-14T22:21:05.883Z,12.90
2022-08-14T22:31:18.303Z,14.75
2022-08-14T22:41:29.596Z,14.63
2022-08-14T22:51:40.674Z,14.80
2022-08-14T23:01:58.716Z,13.40
2022-08-14T23:12:03.508Z,14.45
2022-08-14T23:22:08.103Z,14.50
2022-08-14T23:32:18.812Z,14.68
2022-08-14T23:42:51.142Z,16.67
2022-08-14T23:53:06.583Z,16.92
